Terminal Aerodrome Forecast
Issued by NWS Mt. Holly, NJ

Current Version | Previous Version | Text Only | Print | Product List | Glossary On
Versions: 1 2 3 4 5 6 7 8 9 10 11 12 13 14 15 16 17 18 19 20 21 22
720
FTUS41 KPHI 231120
TAFTTN
TAF
KTTN 231120Z 2312/2412 07021G31KT 5SM -RADZ BR OVC007
     FM231900 07022G32KT 3SM -RA BR OVC007 WS020/08050KT
     FM240100 04020G30KT 1 1/2SM -RA BR OVC007 WS020/08055KT
     FM240700 02018G28KT 3SM -RA BR OVC007=

USA.gov is the U.S. government's official web portal to all federal, state and local government web resources and services.